sensor_id;sensor_type;location;lat;lon;timestamp;pressure;altitude;pressure_sealevel;temperature;humidity
4586;BME280;2305;50.118;8.952;2022-10-20T00:01:05;101077.69;;;10.39;100.00
4586;BME280;2305;50.118;8.952;2022-10-20T00:03:33;101068.81;;;10.40;100.00
4586;BME280;2305;50.118;8.952;2022-10-20T00:06:07;101072.41;;;10.39;100.00
4586;BME280;2305;50.118;8.952;2022-10-20T00:08:36;101082.22;;;10.37;100.00
4586;BME280;2305;50.118;8.952;2022-10-20T00:11:04;101072.63;;;10.36;100.00
4586;BME280;2305;50.118;8.952;2022-10-20T00:13:32;101077.81;;;10.38;100.00
4586;BME280;2305;50.118;8.952;2022-10-20T00:16:00;101073.59;;;10.35;100.00
4586;BME280;2305;50.118;8.952;2022-10-20T00:18:29;101075.25;;;10.36;100.00
4586;BME280;2305;50.118;8.952;2022-10-20T00:20:57;101060.41;;;10.35;100.00
4586;BME280;2305;50.118;8.952;2022-10-20T00:23:26;101063.16;;;10.34;100.00
4586;BME280;2305;50.118;8.952;2022-10-20T00:26:01;101071.78;;;10.36;100.00
4586;BME280;2305;50.118;8.952;2022-10-20T00:28:29;101072.09;;;10.31;100.00
4586;BME280;2305;50.118;8.952;2022-10-20T00:30:57;101071.03;;;10.34;100.00
4586;BME280;2305;50.118;8.952;2022-10-20T00:33:25;101063.88;;;10.36;100.00
4586;BME280;2305;50.118;8.952;2022-10-20T00:35:53;101059.56;;;10.35;100.00
4586;BME280;2305;50.118;8.952;2022-10-20T00:38:21;101055.25;;;10.34;100.00
4586;BME280;2305;50.118;8.952;2022-10-20T00:40:51;101064.41;;;10.28;100.00
4586;BME280;2305;50.118;8.952;2022-10-20T00:43:19;101053.66;;;10.31;100.00
4586;BME280;2305;50.118;8.952;2022-10-20T00:45:50;101048.63;;;10.28;100.00
4586;BME280;2305;50.118;8.952;2022-10-20T00:48:22;101045.03;;;10.29;100.00
4586;BME280;2305;50.118;8.952;2022-10-20T00:50:53;101034.59;;;10.28;100.00
4586;BME280;2305;50.118;8.952;2022-10-20T00:53:23;101019.63;;;10.28;100.00
4586;BME280;2305;50.118;8.952;2022-10-20T00:55:57;101017.53;;;10.21;100.00
4586;BME280;2305;50.118;8.952;2022-10-20T00:58:26;101012.81;;;10.13;100.00
4586;BME280;2305;50.118;8.952;2022-10-20T01:00:56;101005.00;;;10.12;100.00
4586;BME280;2305;50.118;8.952;2022-10-20T01:03:28;100997.94;;;10.12;100.00
4586;BME280;2305;50.118;8.952;2022-10-20T01:05:58;100989.28;;;10.10;100.00
4586;BME280;2305;50.118;8.952;2022-10-20T01:08:26;100988.78;;;10.05;100.00
4586;BME280;2305;50.118;8.952;2022-10-20T01:11:04;100988.41;;;9.97;100.00
4586;BME280;2305;50.118;8.952;2022-10-20T01:13:38;100982.00;;;10.01;100.00
4586;BME280;2305;50.118;8.952;2022-10-20T01:16:14;100977.41;;;10.05;100.00
4586;BME280;2305;50.118;8.952;2022-10-20T01:18:50;100973.09;;;10.04;100.00
4586;BME280;2305;50.118;8.952;2022-10-20T01:21:37;100971.41;;;10.03;100.00
4586;BME280;2305;50.118;8.952;2022-10-20T01:24:31;100976.69;;;10.03;100.00
4586;BME280;2305;50.118;8.952;2022-10-20T01:27:28;100976.69;;;10.03;100.00
4586;BME280;2305;50.118;8.952;2022-10-20T01:30:07;100956.63;;;10.00;100.00
4586;BME280;2305;50.118;8.952;2022-10-20T01:32:53;100955.03;;;9.98;100.00
4586;BME280;2305;50.118;8.952;2022-10-20T01:35:30;100952.50;;;9.96;100.00
4586;BME280;2305;50.118;8.952;2022-10-20T01:38:06;100955.69;;;9.89;100.00
4586;BME280;2305;50.118;8.952;2022-10-20T01:40:41;100949.66;;;9.87;100.00
4586;BME280;2305;50.118;8.952;2022-10-20T01:43:14;100946.22;;;9.86;100.00
4586;BME280;2305;50.118;8.952;2022-10-20T01:45:45;100947.16;;;9.85;100.00
4586;BME280;2305;50.118;8.952;2022-10-20T01:48:16;100955.16;;;9.84;100.00
4586;BME280;2305;50.118;8.952;2022-10-20T01:50:47;100949.16;;;9.82;100.00
4586;BME280;2305;50.118;8.952;2022-10-20T01:53:15;100953.56;;;9.81;100.00
4586;BME280;2305;50.118;8.952;2022-10-20T01:55:43;100945.91;;;9.78;100.00
4586;BME280;2305;50.118;8.952;2022-10-20T01:58:25;100947.25;;;9.71;100.00
4586;BME280;2305;50.118;8.952;2022-10-20T02:01:10;100942.09;;;9.70;100.00
4586;BME280;2305;50.118;8.952;2022-10-20T02:03:50;100951.66;;;9.71;100.00
4586;BME280;2305;50.118;8.952;2022-10-20T02:06:30;100942.81;;;9.72;100.00
4586;BME280;2305;50.118;8.952;2022-10-20T02:09:02;100945.56;;;9.70;100.00
4586;BME280;2305;50.118;8.952;2022-10-20T02:11:38;100937.78;;;9.69;100.00
4586;BME280;2305;50.118;8.952;2022-10-20T02:14:14;100941.69;;;9.63;100.00
4586;BME280;2305;50.118;8.952;2022-10-20T02:16:46;100946.50;;;9.57;100.00
4586;BME280;2305;50.118;8.952;2022-10-20T02:19:18;100935.97;;;9.57;100.00
4586;BME280;2305;50.118;8.952;2022-10-20T02:21:48;100939.47;;;9.57;100.00
4586;BME280;2305;50.118;8.952;2022-10-20T02:24:17;100933.56;;;9.54;100.00
4586;BME280;2305;50.118;8.952;2022-10-20T02:26:48;100932.94;;;9.50;100.00
4586;BME280;2305;50.118;8.952;2022-10-20T02:29:24;100925.97;;;9.49;100.00
4586;BME280;2305;50.118;8.952;2022-10-20T02:31:54;100925.31;;;9.33;100.00
4586;BME280;2305;50.118;8.952;2022-10-20T02:34:25;100922.88;;;9.30;100.00
4586;BME280;2305;50.118;8.952;2022-10-20T02:36:55;100916.91;;;9.28;100.00
4586;BME280;2305;50.118;8.952;2022-10-20T02:39:24;100924.03;;;9.26;100.00
4586;BME280;2305;50.118;8.952;2022-10-20T02:41:52;100918.50;;;9.31;100.00
4586;BME280;2305;50.118;8.952;2022-10-20T02:44:21;100906.91;;;9.33;100.00
4586;BME280;2305;50.118;8.952;2022-10-20T02:46:49;100917.31;;;9.35;100.00
4586;BME280;2305;50.118;8.952;2022-10-20T02:49:17;100922.97;;;9.29;100.00
4586;BME280;2305;50.118;8.952;2022-10-20T02:51:46;100919.31;;;9.31;100.00
4586;BME280;2305;50.118;8.952;2022-10-20T02:54:14;100918.50;;;9.31;100.00
4586;BME280;2305;50.118;8.952;2022-10-20T02:56:41;100910.38;;;9.34;100.00
4586;BME280;2305;50.118;8.952;2022-10-20T02:59:11;100915.84;;;9.31;100.00
4586;BME280;2305;50.118;8.952;2022-10-20T03:01:43;100923.84;;;9.29;100.00
4586;BME280;2305;50.118;8.952;2022-10-20T03:04:12;100913.41;;;9.28;100.00
4586;BME280;2305;50.118;8.952;2022-10-20T03:06:40;100902.81;;;9.29;100.00
4586;BME280;2305;50.118;8.952;2022-10-20T03:09:08;100903.75;;;9.28;100.00
4586;BME280;2305;50.118;8.952;2022-10-20T03:11:36;100912.69;;;9.26;100.00
4586;BME280;2305;50.118;8.952;2022-10-20T03:14:04;100909.97;;;9.27;100.00
4586;BME280;2305;50.118;8.952;2022-10-20T03:16:32;100911.81;;;9.25;100.00
4586;BME280;2305;50.118;8.952;2022-10-20T03:19:01;100905.53;;;9.28;100.00
4586;BME280;2305;50.118;8.952;2022-10-20T03:21:32;100909.31;;;9.24;100.00
4586;BME280;2305;50.118;8.952;2022-10-20T03:24:00;100908.69;;;9.20;100.00
4586;BME280;2305;50.118;8.952;2022-10-20T03:26:28;100913.00;;;9.21;100.00
4586;BME280;2305;50.118;8.952;2022-10-20T03:28:56;100907.53;;;9.24;100.00
4586;BME280;2305;50.118;8.952;2022-10-20T03:31:24;100888.28;;;9.24;100.00
4586;BME280;2305;50.118;8.952;2022-10-20T03:33:52;100903.00;;;9.26;100.00
4586;BME280;2305;50.118;8.952;2022-10-20T03:36:21;100892.38;;;9.28;100.00
4586;BME280;2305;50.118;8.952;2022-10-20T03:38:49;100895.88;;;9.28;100.00
4586;BME280;2305;50.118;8.952;2022-10-20T03:41:17;100890.38;;;9.31;100.00
4586;BME280;2305;50.118;8.952;2022-10-20T03:43:44;100878.19;;;9.30;100.00
4586;BME280;2305;50.118;8.952;2022-10-20T03:46:12;100880.72;;;9.32;100.00
4586;BME280;2305;50.118;8.952;2022-10-20T03:48:40;100879.03;;;9.31;100.00
4586;BME280;2305;50.118;8.952;2022-10-20T03:51:11;100882.41;;;9.33;100.00
4586;BME280;2305;50.118;8.952;2022-10-20T03:53:41;100879.69;;;9.34;100.00
4586;BME280;2305;50.118;8.952;2022-10-20T03:56:11;100871.16;;;9.31;100.00
4586;BME280;2305;50.118;8.952;2022-10-20T03:58:42;100868.53;;;9.31;100.00
4586;BME280;2305;50.118;8.952;2022-10-20T04:01:12;100868.72;;;9.28;100.00
4586;BME280;2305;50.118;8.952;2022-10-20T04:03:41;100862.81;;;9.24;100.00
4586;BME280;2305;50.118;8.952;2022-10-20T04:06:11;100844.41;;;9.24;100.00
4586;BME280;2305;50.118;8.952;2022-10-20T04:08:40;100851.03;;;9.30;100.00
4586;BME280;2305;50.118;8.952;2022-10-20T04:11:08;100850.84;;;9.33;100.00
4586;BME280;2305;50.118;8.952;2022-10-20T04:13:36;100862.94;;;9.35;100.00
4586;BME280;2305;50.118;8.952;2022-10-20T04:16:04;100857.47;;;9.38;100.00
4586;BME280;2305;50.118;8.952;2022-10-20T04:18:32;100853.78;;;9.41;100.00
4586;BME280;2305;50.118;8.952;2022-10-20T04:21:03;100854.53;;;9.43;100.00
4586;BME280;2305;50.118;8.952;2022-10-20T04:23:31;100854.19;;;9.47;100.00
4586;BME280;2305;50.118;8.952;2022-10-20T04:26:08;100842.13;;;9.45;100.00
4586;BME280;2305;50.118;8.952;2022-10-20T04:28:36;100845.38;;;9.48;100.00
4586;BME280;2305;50.118;8.952;2022-10-20T04:31:04;100833.16;;;9.47;100.00
4586;BME280;2305;50.118;8.952;2022-10-20T04:33:33;100819.81;;;9.50;100.00
4586;BME280;2305;50.118;8.952;2022-10-20T04:36:03;100810.03;;;9.52;100.00
4586;BME280;2305;50.118;8.952;2022-10-20T04:38:32;100805.72;;;9.51;100.00
4586;BME280;2305;50.118;8.952;2022-10-20T04:41:02;100814.56;;;9.50;100.00
4586;BME280;2305;50.118;8.952;2022-10-20T04:43:32;100809.06;;;9.53;100.00
4586;BME280;2305;50.118;8.952;2022-10-20T04:46:01;100795.91;;;9.53;100.00
4586;BME280;2305;50.118;8.952;2022-10-20T04:48:34;100799.31;;;9.55;100.00
4586;BME280;2305;50.118;8.952;2022-10-20T04:51:03;100800.22;;;9.54;100.00
4586;BME280;2305;50.118;8.952;2022-10-20T04:53:31;100802.03;;;9.54;100.00
4586;BME280;2305;50.118;8.952;2022-10-20T04:56:00;100815.28;;;9.52;100.00
4586;BME280;2305;50.118;8.952;2022-10-20T04:58:28;100802.13;;;9.52;100.00
4586;BME280;2305;50.118;8.952;2022-10-20T05:01:00;100783.53;;;9.55;100.00
4586;BME280;2305;50.118;8.952;2022-10-20T05:03:29;100783.53;;;9.55;100.00
4586;BME280;2305;50.118;8.952;2022-10-20T05:06:07;100779.19;;;9.54;100.00
4586;BME280;2305;50.118;8.952;2022-10-20T05:08:35;100794.88;;;9.56;100.00
4586;BME280;2305;50.118;8.952;2022-10-20T05:11:04;100793.28;;;9.53;100.00
4586;BME280;2305;50.118;8.952;2022-10-20T05:13:32;100788.97;;;9.52;100.00
4586;BME280;2305;50.118;8.952;2022-10-20T05:16:02;100783.94;;;9.49;100.00
4586;BME280;2305;50.118;8.952;2022-10-20T05:18:30;100777.94;;;9.47;100.00
4586;BME280;2305;50.118;8.952;2022-10-20T05:21:04;100766.47;;;9.48;100.00
4586;BME280;2305;50.118;8.952;2022-10-20T05:23:36;100765.63;;;9.48;100.00
4586;BME280;2305;50.118;8.952;2022-10-20T05:26:07;100756.69;;;9.50;100.00
4586;BME280;2305;50.118;8.952;2022-10-20T05:28:36;100759.31;;;9.50;100.00
4586;BME280;2305;50.118;8.952;2022-10-20T05:31:07;100749.84;;;9.48;100.00
4586;BME280;2305;50.118;8.952;2022-10-20T05:33:38;100743.84;;;9.46;100.00
4586;BME280;2305;50.118;8.952;2022-10-20T05:36:07;100743.63;;;9.49;100.00
4586;BME280;2305;50.118;8.952;2022-10-20T05:38:35;100740.28;;;9.47;100.00
4586;BME280;2305;50.118;8.952;2022-10-20T05:41:08;100758.47;;;9.50;100.00
4586;BME280;2305;50.118;8.952;2022-10-20T05:43:39;100751.31;;;9.52;100.00
4586;BME280;2305;50.118;8.952;2022-10-20T05:46:08;100747.94;;;9.50;100.00
4586;BME280;2305;50.118;8.952;2022-10-20T05:48:36;100747.00;;;9.51;100.00
4586;BME280;2305;50.118;8.952;2022-10-20T05:51:25;100749.63;;;9.51;100.00
4586;BME280;2305;50.118;8.952;2022-10-20T05:53:54;100754.88;;;9.51;100.00
4586;BME280;2305;50.118;8.952;2022-10-20T05:56:24;100755.50;;;9.54;100.00
4586;BME280;2305;50.118;8.952;2022-10-20T05:58:52;100746.06;;;9.52;100.00
4586;BME280;2305;50.118;8.952;2022-10-20T06:01:23;100754.06;;;9.50;100.00
4586;BME280;2305;50.118;8.952;2022-10-20T06:03:53;100757.63;;;9.49;100.00
4586;BME280;2305;50.118;8.952;2022-10-20T06:06:24;100756.59;;;9.52;100.00
4586;BME280;2305;50.118;8.952;2022-10-20T06:08:53;100745.84;;;9.55;100.00
4586;BME280;2305;50.118;8.952;2022-10-20T06:11:21;100746.69;;;9.55;100.00
4586;BME280;2305;50.118;8.952;2022-10-20T06:13:50;100747.41;;;9.57;100.00
4586;BME280;2305;50.118;8.952;2022-10-20T06:16:20;100753.16;;;9.62;100.00
4586;BME280;2305;50.118;8.952;2022-10-20T06:18:50;100762.44;;;9.68;100.00
4586;BME280;2305;50.118;8.952;2022-10-20T06:21:19;100761.25;;;9.72;100.00
4586;BME280;2305;50.118;8.952;2022-10-20T06:23:48;100759.06;;;9.78;100.00
4586;BME280;2305;50.118;8.952;2022-10-20T06:26:18;100768.38;;;9.82;100.00
4586;BME280;2305;50.118;8.952;2022-10-20T06:28:48;100768.28;;;9.84;100.00
4586;BME280;2305;50.118;8.952;2022-10-20T06:31:18;100769.44;;;9.92;100.00
4586;BME280;2305;50.118;8.952;2022-10-20T06:33:47;100772.44;;;9.99;100.00
4586;BME280;2305;50.118;8.952;2022-10-20T06:36:20;100781.72;;;10.04;100.00
4586;BME280;2305;50.118;8.952;2022-10-20T06:38:52;100763.81;;;10.09;100.00
4586;BME280;2305;50.118;8.952;2022-10-20T06:41:20;100766.97;;;10.14;100.00
4586;BME280;2305;50.118;8.952;2022-10-20T06:43:48;100769.88;;;10.22;100.00
4586;BME280;2305;50.118;8.952;2022-10-20T06:46:17;100780.78;;;10.29;100.00
4586;BME280;2305;50.118;8.952;2022-10-20T06:48:45;100770.66;;;10.35;100.00
4586;BME280;2305;50.118;8.952;2022-10-20T06:51:14;100785.06;;;10.42;100.00
4586;BME280;2305;50.118;8.952;2022-10-20T06:53:45;100772.59;;;10.44;100.00
4586;BME280;2305;50.118;8.952;2022-10-20T06:56:14;100773.13;;;10.49;100.00
4586;BME280;2305;50.118;8.952;2022-10-20T06:58:44;100774.09;;;10.59;100.00
4586;BME280;2305;50.118;8.952;2022-10-20T07:01:13;100776.19;;;10.67;100.00
4586;BME280;2305;50.118;8.952;2022-10-20T07:03:43;100768.53;;;10.75;100.00
4586;BME280;2305;50.118;8.952;2022-10-20T07:06:13;100767.47;;;10.77;100.00
4586;BME280;2305;50.118;8.952;2022-10-20T07:08:41;100782.47;;;10.88;100.00
4586;BME280;2305;50.118;8.952;2022-10-20T07:11:13;100789.06;;;10.93;100.00
4586;BME280;2305;50.118;8.952;2022-10-20T07:13:44;100801.56;;;11.02;100.00
4586;BME280;2305;50.118;8.952;2022-10-20T07:16:16;100803.75;;;11.08;100.00
4586;BME280;2305;50.118;8.952;2022-10-20T07:18:45;100803.16;;;11.16;100.00
4586;BME280;2305;50.118;8.952;2022-10-20T07:21:17;100817.88;;;11.18;100.00
4586;BME280;2305;50.118;8.952;2022-10-20T07:23:45;100811.78;;;11.29;100.00
4586;BME280;2305;50.118;8.952;2022-10-20T07:26:17;100814.56;;;11.27;100.00
4586;BME280;2305;50.118;8.952;2022-10-20T07:28:47;100810.16;;;11.39;100.00
4586;BME280;2305;50.118;8.952;2022-10-20T07:31:23;100789.03;;;11.50;100.00
4586;BME280;2305;50.118;8.952;2022-10-20T07:33:52;100792.44;;;11.63;100.00
4586;BME280;2305;50.118;8.952;2022-10-20T07:36:40;100793.41;;;11.73;100.00
4586;BME280;2305;50.118;8.952;2022-10-20T07:39:09;100815.84;;;11.78;100.00
4586;BME280;2305;50.118;8.952;2022-10-20T07:41:39;100828.19;;;11.78;100.00
4586;BME280;2305;50.118;8.952;2022-10-20T07:44:09;100814.88;;;11.79;100.00
4586;BME280;2305;50.118;8.952;2022-10-20T07:46:37;100795.78;;;11.76;100.00
4586;BME280;2305;50.118;8.952;2022-10-20T07:49:05;100793.38;;;11.84;100.00
4586;BME280;2305;50.118;8.952;2022-10-20T07:51:53;100781.50;;;11.78;100.00
4586;BME280;2305;50.118;8.952;2022-10-20T07:54:21;100777.75;;;11.92;100.00
4586;BME280;2305;50.118;8.952;2022-10-20T07:56:50;100784.00;;;12.02;100.00
4586;BME280;2305;50.118;8.952;2022-10-20T07:59:18;100794.09;;;12.08;100.00
4586;BME280;2305;50.118;8.952;2022-10-20T08:01:46;100773.72;;;12.30;100.00
4586;BME280;2305;50.118;8.952;2022-10-20T08:04:14;100771.16;;;12.51;100.00
4586;BME280;2305;50.118;8.952;2022-10-20T08:06:45;100786.84;;;12.52;100.00
4586;BME280;2305;50.118;8.952;2022-10-20T08:09:13;100777.22;;;12.62;100.00
4586;BME280;2305;50.118;8.952;2022-10-20T08:11:40;100783.75;;;12.79;100.00
4586;BME280;2305;50.118;8.952;2022-10-20T08:14:10;100782.00;;;12.89;100.00
4586;BME280;2305;50.118;8.952;2022-10-20T08:16:38;100770.47;;;12.90;100.00
4586;BME280;2305;50.118;8.952;2022-10-20T08:19:19;100761.78;;;12.99;100.00
4586;BME280;2305;50.118;8.952;2022-10-20T08:21:54;100764.53;;;13.18;100.00
4586;BME280;2305;50.118;8.952;2022-10-20T08:24:22;100762.53;;;13.10;100.00
4586;BME280;2305;50.118;8.952;2022-10-20T08:26:50;100756.72;;;13.16;100.00
4586;BME280;2305;50.118;8.952;2022-10-20T08:29:19;100760.91;;;13.19;100.00
4586;BME280;2305;50.118;8.952;2022-10-20T08:31:50;100754.81;;;13.18;100.00
4586;BME280;2305;50.118;8.952;2022-10-20T08:34:18;100762.78;;;13.28;100.00
4586;BME280;2305;50.118;8.952;2022-10-20T08:36:48;100774.03;;;13.20;100.00
4586;BME280;2305;50.118;8.952;2022-10-20T08:39:17;100763.91;;;13.25;100.00
4586;BME280;2305;50.118;8.952;2022-10-20T08:41:47;100752.88;;;13.20;100.00
4586;BME280;2305;50.118;8.952;2022-10-20T08:44:39;100750.84;;;13.33;100.00
4586;BME280;2305;50.118;8.952;2022-10-20T08:47:16;100756.00;;;13.35;100.00
4586;BME280;2305;50.118;8.952;2022-10-20T08:49:50;100750.03;;;13.42;100.00
4586;BME280;2305;50.118;8.952;2022-10-20T08:52:21;100749.06;;;13.43;100.00
4586;BME280;2305;50.118;8.952;2022-10-20T08:54:52;100746.59;;;13.51;100.00
4586;BME280;2305;50.118;8.952;2022-10-20T08:57:26;100753.44;;;13.54;100.00
4586;BME280;2305;50.118;8.952;2022-10-20T09:00:01;100750.97;;;13.62;100.00
4586;BME280;2305;50.118;8.952;2022-10-20T09:02:35;100755.44;;;13.61;100.00
4586;BME280;2305;50.118;8.952;2022-10-20T09:05:05;100753.66;;;13.71;100.00
4586;BME280;2305;50.118;8.952;2022-10-20T09:07:35;100737.66;;;13.82;100.00
4586;BME280;2305;50.118;8.952;2022-10-20T09:10:14;100726.88;;;13.74;100.00
4586;BME280;2305;50.118;8.952;2022-10-20T09:12:46;100712.97;;;13.81;100.00
4586;BME280;2305;50.118;8.952;2022-10-20T09:15:17;100711.75;;;13.85;100.00
4586;BME280;2305;50.118;8.952;2022-10-20T09:17:48;100700.72;;;13.90;100.00
4586;BME280;2305;50.118;8.952;2022-10-20T09:20:20;100706.72;;;13.92;100.00
4586;BME280;2305;50.118;8.952;2022-10-20T09:22:49;100718.84;;;13.94;100.00
4586;BME280;2305;50.118;8.952;2022-10-20T09:25:19;100710.47;;;13.89;100.00
4586;BME280;2305;50.118;8.952;2022-10-20T09:27:50;100697.34;;;13.88;100.00
4586;BME280;2305;50.118;8.952;2022-10-20T09:30:21;100703.75;;;13.76;100.00
4586;BME280;2305;50.118;8.952;2022-10-20T09:32:49;100710.88;;;13.85;100.00
4586;BME280;2305;50.118;8.952;2022-10-20T09:35:20;100706.81;;;13.81;100.00
4586;BME280;2305;50.118;8.952;2022-10-20T09:37:57;100712.31;;;13.89;100.00
4586;BME280;2305;50.118;8.952;2022-10-20T09:40:26;100721.25;;;14.07;100.00
4586;BME280;2305;50.118;8.952;2022-10-20T09:42:56;100716.63;;;14.09;100.00
4586;BME280;2305;50.118;8.952;2022-10-20T09:45:30;100725.59;;;14.17;100.00
4586;BME280;2305;50.118;8.952;2022-10-20T09:48:04;100703.16;;;14.21;100.00
4586;BME280;2305;50.118;8.952;2022-10-20T09:50:37;100699.69;;;14.30;100.00
4586;BME280;2305;50.118;8.952;2022-10-20T09:53:14;100705.25;;;14.37;100.00
4586;BME280;2305;50.118;8.952;2022-10-20T09:55:46;100696.31;;;14.57;100.00
4586;BME280;2305;50.118;8.952;2022-10-20T09:58:17;100708.19;;;14.53;100.00
4586;BME280;2305;50.118;8.952;2022-10-20T10:00:57;100710.56;;;14.56;100.00
4586;BME280;2305;50.118;8.952;2022-10-20T10:03:28;100714.44;;;14.61;100.00
4586;BME280;2305;50.118;8.952;2022-10-20T10:06:19;100718.22;;;14.68;100.00
4586;BME280;2305;50.118;8.952;2022-10-20T10:08:48;100725.91;;;14.52;100.00
4586;BME280;2305;50.118;8.952;2022-10-20T10:11:18;100735.09;;;14.48;100.00
4586;BME280;2305;50.118;8.952;2022-10-20T10:13:48;100745.16;;;14.45;100.00
4586;BME280;2305;50.118;8.952;2022-10-20T10:16:19;100736.25;;;14.46;100.00
4586;BME280;2305;50.118;8.952;2022-10-20T10:18:55;100745.72;;;14.48;100.00
4586;BME280;2305;50.118;8.952;2022-10-20T10:21:25;100739.72;;;14.37;100.00
4586;BME280;2305;50.118;8.952;2022-10-20T10:23:58;100736.94;;;14.57;100.00
4586;BME280;2305;50.118;8.952;2022-10-20T10:26:37;100726.34;;;14.57;100.00
4586;BME280;2305;50.118;8.952;2022-10-20T10:29:23;100718.38;;;14.67;100.00
4586;BME280;2305;50.118;8.952;2022-10-20T10:31:58;100721.41;;;14.62;100.00
4586;BME280;2305;50.118;8.952;2022-10-20T10:34:44;100714.75;;;14.68;100.00
4586;BME280;2305;50.118;8.952;2022-10-20T10:37:17;100716.53;;;14.67;100.00
4586;BME280;2305;50.118;8.952;2022-10-20T10:39:50;100713.19;;;14.65;100.00
4586;BME280;2305;50.118;8.952;2022-10-20T10:42:30;100710.56;;;14.56;100.00
4586;BME280;2305;50.118;8.952;2022-10-20T10:45:14;100698.28;;;14.55;100.00
4586;BME280;2305;50.118;8.952;2022-10-20T10:50:55;100703.84;;;14.52;100.00
4586;BME280;2305;50.118;8.952;2022-10-20T10:53:31;100693.41;;;14.60;100.00
4586;BME280;2305;50.118;8.952;2022-10-20T10:56:12;100692.91;;;14.74;100.00
4586;BME280;2305;50.118;8.952;2022-10-20T10:58:49;100682.31;;;14.74;100.00
4586;BME280;2305;50.118;8.952;2022-10-20T11:01:42;100667.13;;;14.66;100.00
4586;BME280;2305;50.118;8.952;2022-10-20T11:04:47;100676.06;;;14.56;100.00
4586;BME280;2305;50.118;8.952;2022-10-20T11:07:27;100668.38;;;14.62;100.00
4586;BME280;2305;50.118;8.952;2022-10-20T11:10:06;100663.78;;;14.55;100.00
4586;BME280;2305;50.118;8.952;2022-10-20T11:12:53;100661.16;;;14.45;100.00
4586;BME280;2305;50.118;8.952;2022-10-20T11:15:37;100658.06;;;14.50;100.00
4586;BME280;2305;50.118;8.952;2022-10-20T11:18:13;100646.34;;;14.43;100.00
4586;BME280;2305;50.118;8.952;2022-10-20T11:20:51;100638.41;;;14.43;100.00
4586;BME280;2305;50.118;8.952;2022-10-20T11:23:48;100653.63;;;14.41;100.00
4586;BME280;2305;50.118;8.952;2022-10-20T11:26:23;100645.53;;;14.42;100.00
4586;BME280;2305;50.118;8.952;2022-10-20T11:28:56;100635.88;;;14.41;100.00
4586;BME280;2305;50.118;8.952;2022-10-20T11:31:27;100633.66;;;14.46;100.00
4586;BME280;2305;50.118;8.952;2022-10-20T11:34:03;100607.13;;;14.46;100.00
4586;BME280;2305;50.118;8.952;2022-10-20T11:36:35;100589.97;;;14.60;100.00
4586;BME280;2305;50.118;8.952;2022-10-20T11:39:09;100572.16;;;14.79;100.00
4586;BME280;2305;50.118;8.952;2022-10-20T11:41:44;100589.72;;;14.90;100.00
4586;BME280;2305;50.118;8.952;2022-10-20T11:44:20;100594.31;;;14.88;100.00
4586;BME280;2305;50.118;8.952;2022-10-20T11:46:56;100607.97;;;14.93;100.00
4586;BME280;2305;50.118;8.952;2022-10-20T11:49:31;100615.50;;;14.97;100.00
4586;BME280;2305;50.118;8.952;2022-10-20T11:52:21;100607.38;;;15.08;100.00
4586;BME280;2305;50.118;8.952;2022-10-20T11:55:19;100602.84;;;15.18;100.00
4586;BME280;2305;50.118;8.952;2022-10-20T11:58:15;100598.06;;;15.31;100.00
4586;BME280;2305;50.118;8.952;2022-10-20T12:00:59;100594.94;;;15.36;100.00
4586;BME280;2305;50.118;8.952;2022-10-20T12:03:53;100590.72;;;15.43;100.00
4586;BME280;2305;50.118;8.952;2022-10-20T12:06:47;100609.09;;;15.27;100.00
4586;BME280;2305;50.118;8.952;2022-10-20T12:09:45;100602.50;;;15.31;100.00
4586;BME280;2305;50.118;8.952;2022-10-20T12:12:25;100591.19;;;15.29;100.00
4586;BME280;2305;50.118;8.952;2022-10-20T12:14:58;100598.47;;;15.27;100.00
4586;BME280;2305;50.118;8.952;2022-10-20T12:17:30;100601.66;;;15.30;100.00
4586;BME280;2305;50.118;8.952;2022-10-20T12:23:03;100599.50;;;15.16;100.00
4586;BME280;2305;50.118;8.952;2022-10-20T12:25:38;100605.25;;;15.12;100.00
4586;BME280;2305;50.118;8.952;2022-10-20T12:28:38;100600.13;;;15.01;100.00
4586;BME280;2305;50.118;8.952;2022-10-20T12:31:06;100595.66;;;15.01;100.00
4586;BME280;2305;50.118;8.952;2022-10-20T12:33:37;100595.34;;;15.04;100.00
4586;BME280;2305;50.118;8.952;2022-10-20T12:36:33;100603.22;;;14.96;100.00
4586;BME280;2305;50.118;8.952;2022-10-20T12:39:23;100609.66;;;14.94;100.00
4586;BME280;2305;50.118;8.952;2022-10-20T12:41:59;100614.44;;;14.81;100.00
4586;BME280;2305;50.118;8.952;2022-10-20T12:44:39;100617.41;;;14.78;100.00
4586;BME280;2305;50.118;8.952;2022-10-20T12:47:09;100612.66;;;14.72;100.00
4586;BME280;2305;50.118;8.952;2022-10-20T12:49:52;100599.41;;;14.62;100.00
4586;BME280;2305;50.118;8.952;2022-10-20T12:52:26;100602.22;;;14.61;100.00
4586;BME280;2305;50.118;8.952;2022-10-20T12:55:02;100603.78;;;14.63;100.00
4586;BME280;2305;50.118;8.952;2022-10-20T12:57:32;100608.00;;;14.47;100.00
4586;BME280;2305;50.118;8.952;2022-10-20T13:03:34;100610.63;;;14.56;100.00
4586;BME280;2305;50.118;8.952;2022-10-20T13:06:43;100609.66;;;14.57;100.00
4586;BME280;2305;50.118;8.952;2022-10-20T13:09:21;100589.25;;;14.58;100.00
4586;BME280;2305;50.118;8.952;2022-10-20T13:12:22;100586.03;;;14.54;100.00
4586;BME280;2305;50.118;8.952;2022-10-20T13:14:55;100581.59;;;14.55;100.00
4586;BME280;2305;50.118;8.952;2022-10-20T13:17:47;100591.06;;;14.57;100.00
4586;BME280;2305;50.118;8.952;2022-10-20T13:20:23;100597.19;;;14.58;100.00
4586;BME280;2305;50.118;8.952;2022-10-20T13:22:53;100590.78;;;14.60;100.00
4586;BME280;2305;50.118;8.952;2022-10-20T13:25:31;100600.25;;;14.63;100.00
4586;BME280;2305;50.118;8.952;2022-10-20T13:28:03;100605.56;;;14.63;100.00
4586;BME280;2305;50.118;8.952;2022-10-20T13:30:32;100605.56;;;14.63;100.00
4586;BME280;2305;50.118;8.952;2022-10-20T13:33:07;100603.59;;;14.65;100.00
4586;BME280;2305;50.118;8.952;2022-10-20T13:36:06;100598.16;;;14.66;100.00
4586;BME280;2305;50.118;8.952;2022-10-20T13:38:41;100593.72;;;14.67;100.00
4586;BME280;2305;50.118;8.952;2022-10-20T13:41:16;100582.25;;;14.66;100.00
4586;BME280;2305;50.118;8.952;2022-10-20T13:43:55;100593.41;;;14.70;100.00
4586;BME280;2305;50.118;8.952;2022-10-20T13:46:46;100586.13;;;14.72;100.00